Terminal Aerodrome Forecast
Issued by NWS

Home | Current Version | Previous Version | Text Only | Print | Product List | Glossary On
Versions: 1 2 3 4 5 6 7 8 9 10 11 12 13 14 15 16 17 18 19 20 21 22 23 24 25 26
000
FTUS45 KFGZ 212142 AAA
TAFSEZ
TAF AMD
KSEZ 212142Z 2122/2218 VRB05KT P6SM SCT015 BKN030 OVC040
      TEMPO 2200/2204 BKN015 BKN030
     FM220400 03005KT P6SM FEW025 SCT100
     FM221400 VRB06KT P6SM BKN030 OVC060=

USA.gov is the U.S. government's official web portal to all federal, state and local government web resources and services.